Lawson Army Air Field (Fort Benning)
KLSF : now visible

Airfield :











YOU CAN JOIN US ON...

 
LOGIN :

Register | Disclaimer

   EN    FR    IT 

 









Legend :    VFR   Marginal VFR   IFR   Intensive IFR   Very Intensive IFR
Visi :
Ceiling :
>= 8 km
>= 3000ft
5 to 8 km
1000 to 3000 ft
1500m to 5 km
500 to 1000 ft
800 to 1500m
200 to 500 ft
< 800m
< 200 ft
Symbols :   Thunderstorms  Fog  Heavy snow  Heavy precipitations  Wind > 20 kt






- Airport Elevation : 232 ft


KLSF - Lawson Army Air Field (Fort Benning)

CURRENT METAR :
  • 121633Z AUTO 30007KT 10SM BKN006 OVC085 21/19 A3008 RMK AO2 DZE18 SLP190 $

EXPIRED METARs :
  • 121618Z AUTO 32003KT 10SM BKN005 BKN009 OVC085 21/19 A3008 RMK AO2 DZE18 SLP190 $
  • 121556Z AUTO 00000KT 10SM -DZ BKN005 OVC009 20/18 A3007 RMK AO2 RAE05DZB05E14RAB14E51DZB51 CIG 005V007 SLP186 P0001 T01990184 $
  • 121456Z AUTO 00000KT 10SM -RA SCT007 20/19 A3007 RMK AO2 SLP186 P0007 60018 T02040187 50004 $
  • 121431Z AUTO 34003KT 7SM RA SCT005 OVC090 20/19 A3006 RMK AO2 SLP183 $
  • 121416Z AUTO 00000KT 8SM RA SCT005 OVC085 20/19 A3007 RMK AO2 SLP186 $
  • 121356Z AUTO 00000KT 4SM RA BR BKN005 BKN009 OVC075 20/19 A3007 RMK AO2 RAB06 SLP186 P0011 T02000188 $
  • 121351Z AUTO 00000KT 3SM +RA BR BKN005 OVC009 20/19 A3007 RMK AO2 RAB06 SLP186 $

TAF TAF KLSF
Valid from the 12 at 13:00 until the 13 at 19:00 UTC


121300Z 1213/1319 VRB06KT 9000 -SHRA VCTS BKN007 OVC015CB QNH3004INS
TEMPO 1213/1217 6000 -RA BKN004
BECMG 1216/1217 02012KT 9000 -SHRA BKN010 QNH3006INS
BECMG 1220/1221 03010G15KT 9999 NSW BKN014 BKN030 QNH3004INS
BECMG 1302/1303 04009KT 9999 BKN025 QNH3018INS
BECMG 1317/1318 03009KT 9999 FEW040 QNH3024INS TX23/1221Z TN10/1311Z
KZTL FIR / North America



MET'MAP, your aeronautical weather chart ! - Copyright ORBIFLY December 2007 - Disclaimer

ORBIFLY MET'MAP TEAM :

Programming & Development : Alexandra Zaïnal
Concept & original design : Baudouin d'Aumeries
Assistance for programming : Marc-Olivier Méhu
Technical & hardware support : Manuel Goepfert

Contact : metmap@orbifly.com




SOURCES & CREDITS :

   NOAA       Earth
Advisory